sensor_id;sensor_type;location;lat;lon;timestamp;P1;durP1;ratioP1;P2;durP2;ratioP2
51286;SDS011;37364;46.974;18.916;2022-10-16T00:00:40;14.50;;;6.85;;
51286;SDS011;37364;46.974;18.916;2022-10-16T00:03:12;11.38;;;7.50;;
51286;SDS011;37364;46.974;18.916;2022-10-16T00:05:42;19.40;;;8.23;;
51286;SDS011;37364;46.974;18.916;2022-10-16T00:08:13;10.43;;;6.72;;
51286;SDS011;37364;46.974;18.916;2022-10-16T00:10:46;19.42;;;8.13;;
51286;SDS011;37364;46.974;18.916;2022-10-16T00:13:16;17.08;;;7.25;;
51286;SDS011;37364;46.974;18.916;2022-10-16T00:15:47;32.53;;;9.15;;
51286;SDS011;37364;46.974;18.916;2022-10-16T00:18:17;19.48;;;9.13;;
51286;SDS011;37364;46.974;18.916;2022-10-16T00:20:48;15.80;;;8.40;;
51286;SDS011;37364;46.974;18.916;2022-10-16T00:23:18;21.55;;;9.10;;
51286;SDS011;37364;46.974;18.916;2022-10-16T00:25:58;25.92;;;9.10;;
51286;SDS011;37364;46.974;18.916;2022-10-16T00:28:30;12.82;;;8.60;;
51286;SDS011;37364;46.974;18.916;2022-10-16T00:31:05;14.35;;;8.43;;
51286;SDS011;37364;46.974;18.916;2022-10-16T00:33:36;21.85;;;8.07;;
51286;SDS011;37364;46.974;18.916;2022-10-16T00:36:09;12.00;;;7.97;;
51286;SDS011;37364;46.974;18.916;2022-10-16T00:38:41;17.13;;;8.65;;
51286;SDS011;37364;46.974;18.916;2022-10-16T00:41:15;21.30;;;9.57;;
51286;SDS011;37364;46.974;18.916;2022-10-16T00:43:47;17.52;;;9.73;;
51286;SDS011;37364;46.974;18.916;2022-10-16T00:46:20;19.77;;;9.82;;
51286;SDS011;37364;46.974;18.916;2022-10-16T00:48:55;13.32;;;8.88;;
51286;SDS011;37364;46.974;18.916;2022-10-16T00:51:31;15.57;;;9.30;;
51286;SDS011;37364;46.974;18.916;2022-10-16T00:54:03;16.42;;;9.20;;
51286;SDS011;37364;46.974;18.916;2022-10-16T00:56:40;20.17;;;9.57;;
51286;SDS011;37364;46.974;18.916;2022-10-16T00:59:13;19.42;;;10.35;;
51286;SDS011;37364;46.974;18.916;2022-10-16T01:01:46;21.88;;;10.15;;
51286;SDS011;37364;46.974;18.916;2022-10-16T01:04:16;24.00;;;10.60;;
51286;SDS011;37364;46.974;18.916;2022-10-16T01:06:48;19.45;;;10.90;;
51286;SDS011;37364;46.974;18.916;2022-10-16T01:09:25;17.05;;;10.18;;
51286;SDS011;37364;46.974;18.916;2022-10-16T01:12:08;22.13;;;11.43;;
51286;SDS011;37364;46.974;18.916;2022-10-16T01:14:45;21.38;;;10.15;;
51286;SDS011;37364;46.974;18.916;2022-10-16T01:17:27;23.33;;;12.25;;
51286;SDS011;37364;46.974;18.916;2022-10-16T01:20:04;23.38;;;11.75;;
51286;SDS011;37364;46.974;18.916;2022-10-16T01:22:43;33.95;;;13.43;;
51286;SDS011;37364;46.974;18.916;2022-10-16T01:25:25;21.80;;;11.63;;
51286;SDS011;37364;46.974;18.916;2022-10-16T01:28:08;27.90;;;12.40;;
51286;SDS011;37364;46.974;18.916;2022-10-16T01:30:41;25.33;;;12.65;;
51286;SDS011;37364;46.974;18.916;2022-10-16T01:33:14;31.13;;;14.85;;
51286;SDS011;37364;46.974;18.916;2022-10-16T01:35:51;25.92;;;13.75;;
51286;SDS011;37364;46.974;18.916;2022-10-16T01:38:25;33.25;;;15.63;;
51286;SDS011;37364;46.974;18.916;2022-10-16T01:41:00;38.05;;;18.45;;
51286;SDS011;37364;46.974;18.916;2022-10-16T01:43:39;45.30;;;18.60;;
51286;SDS011;37364;46.974;18.916;2022-10-16T01:46:12;77.85;;;30.33;;
51286;SDS011;37364;46.974;18.916;2022-10-16T01:48:45;88.28;;;39.08;;
51286;SDS011;37364;46.974;18.916;2022-10-16T01:51:17;142.52;;;54.25;;
51286;SDS011;37364;46.974;18.916;2022-10-16T01:53:49;158.70;;;61.83;;
51286;SDS011;37364;46.974;18.916;2022-10-16T01:56:22;197.48;;;72.40;;
51286;SDS011;37364;46.974;18.916;2022-10-16T01:58:58;169.68;;;65.47;;
51286;SDS011;37364;46.974;18.916;2022-10-16T02:01:33;174.27;;;64.95;;
51286;SDS011;37364;46.974;18.916;2022-10-16T02:04:07;189.05;;;70.13;;
51286;SDS011;37364;46.974;18.916;2022-10-16T02:06:42;148.63;;;64.93;;
51286;SDS011;37364;46.974;18.916;2022-10-16T02:09:13;171.85;;;66.63;;
51286;SDS011;37364;46.974;18.916;2022-10-16T02:11:43;201.32;;;73.65;;
51286;SDS011;37364;46.974;18.916;2022-10-16T02:14:19;189.30;;;73.55;;
51286;SDS011;37364;46.974;18.916;2022-10-16T02:16:51;194.35;;;78.20;;
51286;SDS011;37364;46.974;18.916;2022-10-16T02:19:22;200.05;;;79.25;;
51286;SDS011;37364;46.974;18.916;2022-10-16T02:21:54;205.73;;;78.43;;
51286;SDS011;37364;46.974;18.916;2022-10-16T02:24:28;183.82;;;75.82;;
51286;SDS011;37364;46.974;18.916;2022-10-16T02:27:06;185.05;;;73.25;;
51286;SDS011;37364;46.974;18.916;2022-10-16T02:29:45;167.80;;;68.05;;
51286;SDS011;37364;46.974;18.916;2022-10-16T02:32:19;167.02;;;65.78;;
51286;SDS011;37364;46.974;18.916;2022-10-16T02:34:53;160.35;;;62.10;;
51286;SDS011;37364;46.974;18.916;2022-10-16T02:37:24;165.48;;;66.00;;
51286;SDS011;37364;46.974;18.916;2022-10-16T02:39:56;140.50;;;57.95;;
51286;SDS011;37364;46.974;18.916;2022-10-16T02:42:29;163.60;;;62.83;;
51286;SDS011;37364;46.974;18.916;2022-10-16T02:45:07;158.07;;;62.63;;
51286;SDS011;37364;46.974;18.916;2022-10-16T02:47:42;123.50;;;48.03;;
51286;SDS011;37364;46.974;18.916;2022-10-16T02:50:12;127.35;;;48.33;;
51286;SDS011;37364;46.974;18.916;2022-10-16T02:52:42;108.07;;;35.97;;
51286;SDS011;37364;46.974;18.916;2022-10-16T02:55:13;97.35;;;40.17;;
51286;SDS011;37364;46.974;18.916;2022-10-16T02:57:43;101.95;;;40.50;;
51286;SDS011;37364;46.974;18.916;2022-10-16T03:00:16;88.07;;;37.80;;
51286;SDS011;37364;46.974;18.916;2022-10-16T03:05:17;79.07;;;34.83;;
51286;SDS011;37364;46.974;18.916;2022-10-16T03:08:07;84.80;;;34.90;;
51286;SDS011;37364;46.974;18.916;2022-10-16T03:10:38;87.35;;;36.97;;
51286;SDS011;37364;46.974;18.916;2022-10-16T03:13:08;96.85;;;38.05;;
51286;SDS011;37364;46.974;18.916;2022-10-16T03:15:41;80.60;;;35.42;;
51286;SDS011;37364;46.974;18.916;2022-10-16T03:18:13;101.03;;;39.25;;
51286;SDS011;37364;46.974;18.916;2022-10-16T03:20:43;109.97;;;46.67;;
51286;SDS011;37364;46.974;18.916;2022-10-16T03:23:13;150.95;;;62.55;;
51286;SDS011;37364;46.974;18.916;2022-10-16T03:25:44;145.85;;;56.58;;
51286;SDS011;37364;46.974;18.916;2022-10-16T03:28:14;148.98;;;58.65;;
51286;SDS011;37364;46.974;18.916;2022-10-16T03:30:49;151.85;;;53.88;;
51286;SDS011;37364;46.974;18.916;2022-10-16T03:33:20;143.25;;;53.45;;
51286;SDS011;37364;46.974;18.916;2022-10-16T03:35:50;135.30;;;49.63;;
51286;SDS011;37364;46.974;18.916;2022-10-16T03:38:22;119.72;;;45.45;;
51286;SDS011;37364;46.974;18.916;2022-10-16T03:40:52;117.43;;;44.50;;
51286;SDS011;37364;46.974;18.916;2022-10-16T03:43:22;108.90;;;41.40;;
51286;SDS011;37364;46.974;18.916;2022-10-16T03:45:55;110.95;;;42.45;;
51286;SDS011;37364;46.974;18.916;2022-10-16T03:48:25;104.88;;;44.38;;
51286;SDS011;37364;46.974;18.916;2022-10-16T03:50:56;111.10;;;46.20;;
51286;SDS011;37364;46.974;18.916;2022-10-16T03:53:26;124.35;;;47.97;;
51286;SDS011;37364;46.974;18.916;2022-10-16T03:55:56;152.02;;;52.17;;
51286;SDS011;37364;46.974;18.916;2022-10-16T03:58:26;112.70;;;48.40;;
51286;SDS011;37364;46.974;18.916;2022-10-16T04:00:59;109.32;;;45.17;;
51286;SDS011;37364;46.974;18.916;2022-10-16T04:03:30;89.05;;;38.13;;
51286;SDS011;37364;46.974;18.916;2022-10-16T04:06:00;74.18;;;34.47;;
51286;SDS011;37364;46.974;18.916;2022-10-16T04:08:31;69.20;;;29.73;;
51286;SDS011;37364;46.974;18.916;2022-10-16T04:11:03;57.30;;;28.70;;
51286;SDS011;37364;46.974;18.916;2022-10-16T04:13:33;48.95;;;25.83;;
51286;SDS011;37364;46.974;18.916;2022-10-16T04:16:06;60.85;;;25.00;;
51286;SDS011;37364;46.974;18.916;2022-10-16T04:18:37;43.58;;;22.08;;
51286;SDS011;37364;46.974;18.916;2022-10-16T04:21:07;51.10;;;23.83;;
51286;SDS011;37364;46.974;18.916;2022-10-16T04:23:38;46.78;;;22.08;;
51286;SDS011;37364;46.974;18.916;2022-10-16T04:26:09;54.40;;;26.10;;
51286;SDS011;37364;46.974;18.916;2022-10-16T04:28:39;63.75;;;31.23;;
51286;SDS011;37364;46.974;18.916;2022-10-16T04:31:12;92.38;;;39.22;;
51286;SDS011;37364;46.974;18.916;2022-10-16T04:33:42;83.68;;;36.53;;
51286;SDS011;37364;46.974;18.916;2022-10-16T04:36:13;88.28;;;39.80;;
51286;SDS011;37364;46.974;18.916;2022-10-16T04:38:43;120.70;;;48.45;;
51286;SDS011;37364;46.974;18.916;2022-10-16T04:41:13;124.75;;;50.60;;
51286;SDS011;37364;46.974;18.916;2022-10-16T04:43:43;144.73;;;55.95;;
51286;SDS011;37364;46.974;18.916;2022-10-16T04:46:16;153.38;;;62.03;;
51286;SDS011;37364;46.974;18.916;2022-10-16T04:48:46;143.88;;;58.13;;
51286;SDS011;37364;46.974;18.916;2022-10-16T04:51:17;135.88;;;56.65;;
51286;SDS011;37364;46.974;18.916;2022-10-16T04:53:47;134.13;;;55.22;;
51286;SDS011;37364;46.974;18.916;2022-10-16T04:56:18;124.00;;;53.15;;
51286;SDS011;37364;46.974;18.916;2022-10-16T04:58:48;133.05;;;52.15;;
51286;SDS011;37364;46.974;18.916;2022-10-16T05:01:21;110.07;;;48.80;;
51286;SDS011;37364;46.974;18.916;2022-10-16T05:03:52;105.18;;;45.03;;
51286;SDS011;37364;46.974;18.916;2022-10-16T05:06:22;105.45;;;43.92;;
51286;SDS011;37364;46.974;18.916;2022-10-16T05:08:53;89.88;;;41.10;;
51286;SDS011;37364;46.974;18.916;2022-10-16T05:11:23;103.43;;;40.20;;
51286;SDS011;37364;46.974;18.916;2022-10-16T05:13:54;110.53;;;44.40;;
51286;SDS011;37364;46.974;18.916;2022-10-16T05:16:27;89.18;;;40.03;;
51286;SDS011;37364;46.974;18.916;2022-10-16T05:18:59;97.78;;;43.53;;
51286;SDS011;37364;46.974;18.916;2022-10-16T05:21:50;108.32;;;43.83;;
51286;SDS011;37364;46.974;18.916;2022-10-16T05:24:21;104.82;;;47.50;;
51286;SDS011;37364;46.974;18.916;2022-10-16T05:26:51;98.30;;;41.80;;
51286;SDS011;37364;46.974;18.916;2022-10-16T05:29:22;106.97;;;46.10;;
51286;SDS011;37364;46.974;18.916;2022-10-16T05:31:55;100.20;;;43.35;;
51286;SDS011;37364;46.974;18.916;2022-10-16T05:34:26;154.10;;;57.22;;
51286;SDS011;37364;46.974;18.916;2022-10-16T05:36:56;142.38;;;61.03;;
51286;SDS011;37364;46.974;18.916;2022-10-16T05:39:27;114.97;;;47.88;;
51286;SDS011;37364;46.974;18.916;2022-10-16T05:41:57;136.27;;;55.53;;
51286;SDS011;37364;46.974;18.916;2022-10-16T05:44:28;138.13;;;53.72;;
51286;SDS011;37364;46.974;18.916;2022-10-16T05:47:02;153.70;;;55.40;;
51286;SDS011;37364;46.974;18.916;2022-10-16T05:49:32;129.10;;;52.03;;
51286;SDS011;37364;46.974;18.916;2022-10-16T05:52:06;100.10;;;44.72;;
51286;SDS011;37364;46.974;18.916;2022-10-16T05:54:37;81.30;;;34.67;;
51286;SDS011;37364;46.974;18.916;2022-10-16T05:57:07;74.35;;;32.03;;
51286;SDS011;37364;46.974;18.916;2022-10-16T05:59:37;76.93;;;31.77;;
51286;SDS011;37364;46.974;18.916;2022-10-16T06:02:11;64.88;;;29.63;;
51286;SDS011;37364;46.974;18.916;2022-10-16T06:04:42;60.03;;;29.02;;
51286;SDS011;37364;46.974;18.916;2022-10-16T06:07:12;49.50;;;22.98;;
51286;SDS011;37364;46.974;18.916;2022-10-16T06:09:43;42.53;;;22.27;;
51286;SDS011;37364;46.974;18.916;2022-10-16T06:12:13;42.63;;;21.75;;
51286;SDS011;37364;46.974;18.916;2022-10-16T06:14:45;47.60;;;21.02;;
51286;SDS011;37364;46.974;18.916;2022-10-16T06:17:18;39.50;;;21.85;;
51286;SDS011;37364;46.974;18.916;2022-10-16T06:19:48;43.58;;;21.45;;
51286;SDS011;37364;46.974;18.916;2022-10-16T06:22:19;50.20;;;24.20;;
51286;SDS011;37364;46.974;18.916;2022-10-16T06:24:49;58.63;;;24.90;;
51286;SDS011;37364;46.974;18.916;2022-10-16T06:27:19;58.15;;;25.58;;
51286;SDS011;37364;46.974;18.916;2022-10-16T06:29:50;68.55;;;30.45;;
51286;SDS011;37364;46.974;18.916;2022-10-16T06:32:23;80.72;;;36.97;;
51286;SDS011;37364;46.974;18.916;2022-10-16T06:34:54;131.77;;;45.83;;
51286;SDS011;37364;46.974;18.916;2022-10-16T06:37:24;132.85;;;49.33;;
51286;SDS011;37364;46.974;18.916;2022-10-16T06:39:55;117.28;;;46.95;;
51286;SDS011;37364;46.974;18.916;2022-10-16T06:42:27;102.55;;;40.97;;
51286;SDS011;37364;46.974;18.916;2022-10-16T06:44:57;113.10;;;45.45;;
51286;SDS011;37364;46.974;18.916;2022-10-16T06:47:30;111.10;;;47.45;;
51286;SDS011;37364;46.974;18.916;2022-10-16T06:50:00;102.03;;;48.93;;
51286;SDS011;37364;46.974;18.916;2022-10-16T06:52:33;128.15;;;54.03;;
51286;SDS011;37364;46.974;18.916;2022-10-16T06:55:04;113.53;;;45.55;;
51286;SDS011;37364;46.974;18.916;2022-10-16T06:57:34;110.30;;;45.97;;
51286;SDS011;37364;46.974;18.916;2022-10-16T07:00:05;98.53;;;42.90;;
51286;SDS011;37364;46.974;18.916;2022-10-16T07:02:39;84.18;;;36.42;;
51286;SDS011;37364;46.974;18.916;2022-10-16T07:05:09;73.53;;;34.70;;
51286;SDS011;37364;46.974;18.916;2022-10-16T07:07:39;76.53;;;33.95;;
51286;SDS011;37364;46.974;18.916;2022-10-16T07:10:10;66.85;;;32.60;;
51286;SDS011;37364;46.974;18.916;2022-10-16T07:12:40;69.68;;;33.30;;
51286;SDS011;37364;46.974;18.916;2022-10-16T07:15:11;73.38;;;33.42;;
51286;SDS011;37364;46.974;18.916;2022-10-16T07:17:46;81.30;;;37.72;;
51286;SDS011;37364;46.974;18.916;2022-10-16T07:20:16;100.05;;;37.75;;
51286;SDS011;37364;46.974;18.916;2022-10-16T07:22:46;72.63;;;34.53;;
51286;SDS011;37364;46.974;18.916;2022-10-16T07:25:16;74.30;;;34.83;;
51286;SDS011;37364;46.974;18.916;2022-10-16T07:27:47;74.97;;;34.95;;
51286;SDS011;37364;46.974;18.916;2022-10-16T07:30:17;73.93;;;35.15;;
51286;SDS011;37364;46.974;18.916;2022-10-16T07:32:49;77.70;;;33.42;;
51286;SDS011;37364;46.974;18.916;2022-10-16T07:35:19;75.78;;;36.95;;
51286;SDS011;37364;46.974;18.916;2022-10-16T07:37:50;74.32;;;34.33;;
51286;SDS011;37364;46.974;18.916;2022-10-16T07:40:20;83.45;;;35.13;;
51286;SDS011;37364;46.974;18.916;2022-10-16T07:45:23;77.90;;;35.25;;
51286;SDS011;37364;46.974;18.916;2022-10-16T07:47:57;97.47;;;39.92;;
51286;SDS011;37364;46.974;18.916;2022-10-16T07:50:27;90.53;;;33.23;;
51286;SDS011;37364;46.974;18.916;2022-10-16T07:52:57;73.85;;;33.83;;
51286;SDS011;37364;46.974;18.916;2022-10-16T07:55:27;67.97;;;27.60;;
51286;SDS011;37364;46.974;18.916;2022-10-16T07:57:57;57.85;;;27.13;;
51286;SDS011;37364;46.974;18.916;2022-10-16T08:00:29;65.95;;;27.10;;
51286;SDS011;37364;46.974;18.916;2022-10-16T08:03:02;77.72;;;32.20;;
51286;SDS011;37364;46.974;18.916;2022-10-16T08:05:32;58.08;;;22.05;;
51286;SDS011;37364;46.974;18.916;2022-10-16T08:08:03;49.35;;;22.95;;
51286;SDS011;37364;46.974;18.916;2022-10-16T08:10:34;64.20;;;31.80;;
51286;SDS011;37364;46.974;18.916;2022-10-16T08:13:04;68.25;;;32.38;;
51286;SDS011;37364;46.974;18.916;2022-10-16T08:15:34;89.32;;;35.88;;
51286;SDS011;37364;46.974;18.916;2022-10-16T08:18:08;126.22;;;45.53;;
51286;SDS011;37364;46.974;18.916;2022-10-16T08:20:39;151.77;;;58.35;;
51286;SDS011;37364;46.974;18.916;2022-10-16T08:23:10;123.68;;;51.67;;
51286;SDS011;37364;46.974;18.916;2022-10-16T08:25:41;105.15;;;42.60;;
51286;SDS011;37364;46.974;18.916;2022-10-16T08:28:11;76.38;;;35.17;;
51286;SDS011;37364;46.974;18.916;2022-10-16T08:30:42;60.03;;;30.75;;
51286;SDS011;37364;46.974;18.916;2022-10-16T08:33:15;63.58;;;27.25;;
51286;SDS011;37364;46.974;18.916;2022-10-16T08:35:50;49.30;;;26.97;;
51286;SDS011;37364;46.974;18.916;2022-10-16T08:38:20;64.07;;;23.67;;
51286;SDS011;37364;46.974;18.916;2022-10-16T08:40:51;43.97;;;22.75;;
51286;SDS011;37364;46.974;18.916;2022-10-16T08:43:33;63.75;;;27.50;;
51286;SDS011;37364;46.974;18.916;2022-10-16T08:46:24;58.88;;;27.02;;
51286;SDS011;37364;46.974;18.916;2022-10-16T08:49:16;49.97;;;25.13;;
51286;SDS011;37364;46.974;18.916;2022-10-16T08:51:47;63.95;;;29.08;;
51286;SDS011;37364;46.974;18.916;2022-10-16T08:54:23;72.10;;;30.83;;
51286;SDS011;37364;46.974;18.916;2022-10-16T08:57:01;59.90;;;32.67;;
51286;SDS011;37364;46.974;18.916;2022-10-16T08:59:49;70.25;;;36.00;;
51286;SDS011;37364;46.974;18.916;2022-10-16T09:02:24;67.80;;;34.13;;
51286;SDS011;37364;46.974;18.916;2022-10-16T09:05:18;60.80;;;27.50;;
51286;SDS011;37364;46.974;18.916;2022-10-16T09:07:56;66.60;;;29.67;;
51286;SDS011;37364;46.974;18.916;2022-10-16T09:10:41;49.05;;;24.98;;
51286;SDS011;37364;46.974;18.916;2022-10-16T09:13:21;55.35;;;25.33;;
51286;SDS011;37364;46.974;18.916;2022-10-16T09:15:59;54.65;;;23.30;;
51286;SDS011;37364;46.974;18.916;2022-10-16T09:18:43;36.20;;;16.13;;
51286;SDS011;37364;46.974;18.916;2022-10-16T09:21:24;30.00;;;14.63;;
51286;SDS011;37364;46.974;18.916;2022-10-16T09:23:58;35.47;;;16.17;;
51286;SDS011;37364;46.974;18.916;2022-10-16T09:26:34;35.67;;;16.63;;
51286;SDS011;37364;46.974;18.916;2022-10-16T09:29:04;29.08;;;17.25;;
51286;SDS011;37364;46.974;18.916;2022-10-16T09:31:36;26.17;;;15.27;;
51286;SDS011;37364;46.974;18.916;2022-10-16T09:34:09;29.75;;;16.05;;
51286;SDS011;37364;46.974;18.916;2022-10-16T09:36:50;38.58;;;16.08;;
51286;SDS011;37364;46.974;18.916;2022-10-16T09:39:21;25.90;;;12.88;;
51286;SDS011;37364;46.974;18.916;2022-10-16T09:41:52;26.35;;;13.55;;
51286;SDS011;37364;46.974;18.916;2022-10-16T09:44:23;25.38;;;12.88;;
51286;SDS011;37364;46.974;18.916;2022-10-16T09:47:02;24.05;;;11.70;;
51286;SDS011;37364;46.974;18.916;2022-10-16T09:49:33;22.70;;;11.00;;
51286;SDS011;37364;46.974;18.916;2022-10-16T09:52:10;22.58;;;12.63;;
51286;SDS011;37364;46.974;18.916;2022-10-16T09:54:48;31.48;;;15.00;;
51286;SDS011;37364;46.974;18.916;2022-10-16T09:57:20;25.75;;;10.50;;
51286;SDS011;37364;46.974;18.916;2022-10-16T09:59:52;14.68;;;8.88;;
51286;SDS011;37364;46.974;18.916;2022-10-16T10:02:26;32.95;;;9.55;;
51286;SDS011;37364;46.974;18.916;2022-10-16T10:04:59;14.80;;;9.25;;
51286;SDS011;37364;46.974;18.916;2022-10-16T10:07:42;21.42;;;9.45;;
51286;SDS011;37364;46.974;18.916;2022-10-16T10:10:18;19.02;;;8.73;;
51286;SDS011;37364;46.974;18.916;2022-10-16T10:12:51;23.45;;;9.35;;
51286;SDS011;37364;46.974;18.916;2022-10-16T10:15:22;15.48;;;7.88;;
51286;SDS011;37364;46.974;18.916;2022-10-16T10:17:54;37.00;;;8.85;;
51286;SDS011;37364;46.974;18.916;2022-10-16T10:20:26;15.30;;;9.40;;
51286;SDS011;37364;46.974;18.916;2022-10-16T10:23:13;23.83;;;13.05;;
51286;SDS011;37364;46.974;18.916;2022-10-16T10:25:52;36.97;;;12.45;;
51286;SDS011;37364;46.974;18.916;2022-10-16T10:31:25;20.58;;;11.55;;
51286;SDS011;37364;46.974;18.916;2022-10-16T10:34:04;24.50;;;11.57;;
51286;SDS011;37364;46.974;18.916;2022-10-16T10:36:46;19.02;;;8.40;;
51286;SDS011;37364;46.974;18.916;2022-10-16T10:39:25;20.65;;;8.70;;
51286;SDS011;37364;46.974;18.916;2022-10-16T10:42:13;26.15;;;9.45;;
51286;SDS011;37364;46.974;18.916;2022-10-16T10:44:58;17.73;;;9.07;;
51286;SDS011;37364;46.974;18.916;2022-10-16T10:47:53;30.80;;;15.88;;
51286;SDS011;37364;46.974;18.916;2022-10-16T10:50:36;24.08;;;14.05;;
51286;SDS011;37364;46.974;18.916;2022-10-16T10:53:18;15.45;;;8.85;;
51286;SDS011;37364;46.974;18.916;2022-10-16T10:55:57;18.42;;;10.43;;
51286;SDS011;37364;46.974;18.916;2022-10-16T10:58:40;21.42;;;7.20;;
51286;SDS011;37364;46.974;18.916;2022-10-16T11:01:40;20.50;;;6.45;;
51286;SDS011;37364;46.974;18.916;2022-10-16T11:07:10;18.20;;;6.63;;
51286;SDS011;37364;46.974;18.916;2022-10-16T11:09:47;27.25;;;7.20;;
51286;SDS011;37364;46.974;18.916;2022-10-16T11:12:25;11.90;;;6.28;;
51286;SDS011;37364;46.974;18.916;2022-10-16T11:15:01;27.92;;;7.20;;
51286;SDS011;37364;46.974;18.916;2022-10-16T11:17:41;23.75;;;6.53;;
51286;SDS011;37364;46.974;18.916;2022-10-16T11:20:16;19.73;;;6.22;;
51286;SDS011;37364;46.974;18.916;2022-10-16T11:22:51;16.67;;;5.97;;
51286;SDS011;37364;46.974;18.916;2022-10-16T11:25:26;30.85;;;8.07;;
51286;SDS011;37364;46.974;18.916;2022-10-16T11:28:01;20.00;;;8.88;;
51286;SDS011;37364;46.974;18.916;2022-10-16T11:30:39;20.70;;;7.55;;
51286;SDS011;37364;46.974;18.916;2022-10-16T11:33:22;18.80;;;7.85;;
51286;SDS011;37364;46.974;18.916;2022-10-16T11:36:02;24.02;;;8.88;;
51286;SDS011;37364;46.974;18.916;2022-10-16T11:38:38;22.38;;;9.50;;
51286;SDS011;37364;46.974;18.916;2022-10-16T11:41:17;18.30;;;9.82;;
51286;SDS011;37364;46.974;18.916;2022-10-16T11:44:02;25.40;;;9.63;;
51286;SDS011;37364;46.974;18.916;2022-10-16T11:46:43;16.55;;;6.72;;
51286;SDS011;37364;46.974;18.916;2022-10-16T11:49:40;12.05;;;7.45;;
51286;SDS011;37364;46.974;18.916;2022-10-16T11:52:15;16.67;;;7.20;;
51286;SDS011;37364;46.974;18.916;2022-10-16T11:54:54;17.42;;;9.15;;
51286;SDS011;37364;46.974;18.916;2022-10-16T11:57:31;13.48;;;6.30;;
51286;SDS011;37364;46.974;18.916;2022-10-16T12:00:08;11.38;;;7.20;;
51286;SDS011;37364;46.974;18.916;2022-10-16T12:02:48;17.52;;;6.72;;
51286;SDS011;37364;46.974;18.916;2022-10-16T12:05:27;15.80;;;5.22;;
51286;SDS011;37364;46.974;18.916;2022-10-16T12:08:06;21.70;;;7.80;;
51286;SDS011;37364;46.974;18.916;2022-10-16T12:10:40;12.15;;;6.85;;
51286;SDS011;37364;46.974;18.916;2022-10-16T12:16:18;19.13;;;8.88;;
51286;SDS011;37364;46.974;18.916;2022-10-16T12:19:03;18.67;;;7.45;;
51286;SDS011;37364;46.974;18.916;2022-10-16T12:21:40;13.68;;;6.63;;
51286;SDS011;37364;46.974;18.916;2022-10-16T12:24:20;11.35;;;6.22;;
51286;SDS011;37364;46.974;18.916;2022-10-16T12:26:57;26.85;;;5.85;;
51286;SDS011;37364;46.974;18.916;2022-10-16T12:29:33;11.60;;;5.25;;
51286;SDS011;37364;46.974;18.916;2022-10-16T12:32:20;12.00;;;5.53;;
51286;SDS011;37364;46.974;18.916;2022-10-16T12:35:17;9.35;;;5.88;;
51286;SDS011;37364;46.974;18.916;2022-10-16T12:37:50;13.68;;;5.82;;
51286;SDS011;37364;46.974;18.916;2022-10-16T12:40:26;34.65;;;5.70;;
51286;SDS011;37364;46.974;18.916;2022-10-16T12:43:10;13.50;;;5.60;;
51286;SDS011;37364;46.974;18.916;2022-10-16T12:45:59;15.13;;;6.63;;
51286;SDS011;37364;46.974;18.916;2022-10-16T12:48:34;10.20;;;5.45;;
51286;SDS011;37364;46.974;18.916;2022-10-16T12:51:22;17.95;;;6.82;;
51286;SDS011;37364;46.974;18.916;2022-10-16T12:54:00;34.50;;;7.80;;
51286;SDS011;37364;46.974;18.916;2022-10-16T12:56:34;13.93;;;5.90;;
51286;SDS011;37364;46.974;18.916;2022-10-16T12:59:14;13.82;;;5.25;;
51286;SDS011;37364;46.974;18.916;2022-10-16T13:01:58;18.20;;;4.82;;
51286;SDS011;37364;46.974;18.916;2022-10-16T13:04:46;14.05;;;5.47;;
51286;SDS011;37364;46.974;18.916;2022-10-16T13:07:41;11.52;;;5.85;;
51286;SDS011;37364;46.974;18.916;2022-10-16T13:10:23;5.80;;;4.55;;
51286;SDS011;37364;46.974;18.916;2022-10-16T13:16:08;10.15;;;5.63;;
51286;SDS011;37364;46.974;18.916;2022-10-16T13:18:50;18.02;;;5.00;;
51286;SDS011;37364;46.974;18.916;2022-10-16T13:21:36;12.60;;;4.88;;
51286;SDS011;37364;46.974;18.916;2022-10-16T13:24:16;15.93;;;5.13;;
51286;SDS011;37364;46.974;18.916;2022-10-16T13:26:56;12.52;;;5.13;;
51286;SDS011;37364;46.974;18.916;2022-10-16T13:29:32;15.38;;;5.40;;
51286;SDS011;37364;46.974;18.916;2022-10-16T13:32:06;22.40;;;6.13;;
51286;SDS011;37364;46.974;18.916;2022-10-16T13:34:43;17.95;;;7.07;;
51286;SDS011;37364;46.974;18.916;2022-10-16T13:37:20;17.75;;;5.93;;
51286;SDS011;37364;46.974;18.916;2022-10-16T13:40:01;19.13;;;7.05;;
51286;SDS011;37364;46.974;18.916;2022-10-16T13:42:37;16.90;;;7.05;;
51286;SDS011;37364;46.974;18.916;2022-10-16T13:45:18;21.93;;;6.10;;
51286;SDS011;37364;46.974;18.916;2022-10-16T13:48:03;16.35;;;6.82;;
51286;SDS011;37364;46.974;18.916;2022-10-16T13:50:34;9.95;;;5.35;;
51286;SDS011;37364;46.974;18.916;2022-10-16T13:53:10;11.15;;;5.55;;
51286;SDS011;37364;46.974;18.916;2022-10-16T13:55:43;20.17;;;5.97;;
51286;SDS011;37364;46.974;18.916;2022-10-16T13:58:14;13.88;;;6.45;;
51286;SDS011;37364;46.974;18.916;2022-10-16T14:00:53;13.80;;;7.10;;
51286;SDS011;37364;46.974;18.916;2022-10-16T14:03:26;16.67;;;6.75;;
51286;SDS011;37364;46.974;18.916;2022-10-16T14:05:59;19.42;;;6.47;;
51286;SDS011;37364;46.974;18.916;2022-10-16T14:08:33;14.07;;;5.75;;
51286;SDS011;37364;46.974;18.916;2022-10-16T14:11:04;35.67;;;6.18;;
51286;SDS011;37364;46.974;18.916;2022-10-16T14:13:36;12.05;;;4.78;;
51286;SDS011;37364;46.974;18.916;2022-10-16T14:16:09;12.15;;;5.00;;
51286;SDS011;37364;46.974;18.916;2022-10-16T14:18:46;9.30;;;5.40;;
51286;SDS011;37364;46.974;18.916;2022-10-16T14:21:26;11.05;;;4.95;;
51286;SDS011;37364;46.974;18.916;2022-10-16T14:24:13;13.43;;;5.15;;
51286;SDS011;37364;46.974;18.916;2022-10-16T14:26:51;25.17;;;6.13;;
51286;SDS011;37364;46.974;18.916;2022-10-16T14:29:23;27.95;;;5.75;;
51286;SDS011;37364;46.974;18.916;2022-10-16T14:31:55;15.45;;;6.35;;
51286;SDS011;37364;46.974;18.916;2022-10-16T14:34:27;14.35;;;5.57;;
51286;SDS011;37364;46.974;18.916;2022-10-16T14:37:00;12.60;;;5.05;;
51286;SDS011;37364;46.974;18.916;2022-10-16T14:39:39;8.48;;;4.88;;
51286;SDS011;37364;46.974;18.916;2022-10-16T14:42:11;8.05;;;4.95;;
51286;SDS011;37364;46.974;18.916;2022-10-16T14:44:46;8.18;;;4.80;;
51286;SDS011;37364;46.974;18.916;2022-10-16T14:47:20;7.85;;;5.47;;
51286;SDS011;37364;46.974;18.916;2022-10-16T14:49:54;11.70;;;4.88;;
51286;SDS011;37364;46.974;18.916;2022-10-16T14:52:25;15.32;;;5.07;;
51286;SDS011;37364;46.974;18.916;2022-10-16T14:54:58;11.73;;;5.57;;
51286;SDS011;37364;46.974;18.916;2022-10-16T14:57:29;14.65;;;5.65;;
51286;SDS011;37364;46.974;18.916;2022-10-16T15:00:08;11.77;;;5.05;;
51286;SDS011;37364;46.974;18.916;2022-10-16T15:02:44;10.32;;;4.80;;
51286;SDS011;37364;46.974;18.916;2022-10-16T15:05:18;10.20;;;5.03;;
51286;SDS011;37364;46.974;18.916;2022-10-16T15:07:50;8.70;;;4.55;;
51286;SDS011;37364;46.974;18.916;2022-10-16T15:10:25;11.15;;;4.70;;